Aérodrome :
LOGIN :

S'inscrire | Disclaimer

   EN    FR    IT 

 










Légende :    VFR   VFR Marginal   IFR   IFR Intensif   IFR Très Intensif
Visi : 
Plafond : 
>= 8 km
>= 3000ft
5 à 8 km
1000 à 3000 ft
1500m à 5 km
500 à 1000 ft
800 à 1500m
200 à 500 ft
< 800m
< 200 ft
Symboles :   Orages  Brouillard  Fortes neiges  Fortes précipitations  Vent > 20 kt
SIGMETs :   Divers  Orages  Givrage  Turbulence  Onde Orograph.  Cendres Volcan.






- Altitude de l'aérodrome : 502 ft
- Code IATA : ORK


EICK - Cork

DERNIER METAR :
  • 040400Z 32013KT 9999 FEW018CB 01/M01 Q0985 NOSIG

METARs EXPIRÉS :
  • 040330Z 32011KT 9999 FEW018CB 01/M01 Q0985 NOSIG
  • 040300Z 31012KT 9999 FEW018CB 01/M01 Q0985 NOSIG
  • 040230Z 32009KT 9999 FEW018CB 01/M01 Q0985 NOSIG
  • 040200Z 31010KT 9999 FEW018CB 01/M01 Q0985 NOSIG

TAF TAF EICK
Valide du 04 à 00h jusqu'au 05 à 00h UTC


032300Z 0400/0424 32012KT 9999 FEW018
PROB30
TEMPO 0407/0413 -SHRA FEW018CB
BECMG 0409/0411 32018G30KT
BECMG 0415/0417 33025G42KT



MET'MAP, la Météo Aéronautique d'un coup d'oeil ! - Copyright ORBIFLY Décembre 2007 - Disclaimer

ORBIFLY MET'MAP TEAM :

Programmation & Développement : Alexandra Zaïnal
Sur une idée originale de : Baudouin d'Aumeries
Assistance à la programmation : Marc-Olivier Méhu
Soutien technique & logistique : Manuel Goepfert

Contact : metmap@orbifly.com




SOURCES & CREDITS :

   NOAA